Time;durP1;ratioP1;P1;durP2;ratioP2;P2;SDS_P1;SDS_P2;PMS_P1;PMS_P2;Temp;Humidity;BMP_temperature;BMP_pressure;BME280_temperature;BME280_humidity;BME280_pressure;Samples;Min_cycle;Max_cycle;Signal;HPM_P1;HPM_P2
2022/01/23 00:00:02;;;;;;;;;;;;;;;;;;7392957;19;2039;-48
2022/01/23 00:02:35;;;;;;;;;;;;;;;;;;7392252;19;1988;-50
2022/01/23 00:05:06;;;;;;;;;;;;;;;;;;7392796;19;2358;-44
2022/01/23 00:07:34;;;;;;;;;;;;;;;;;;7392919;19;2025;-46
2022/01/23 00:10:03;;;;;;;;;;;;;;;;;;7392900;19;2148;-47
2022/01/23 00:12:34;;;;;;;;;;;;;;;;;;7395702;19;1354;-50
2022/01/23 00:17:48;;;;;;;;;;;;;;;;;;7392225;19;2462;-47
2022/01/23 00:20:15;;;;;;;;;;;;;;;;;;7391905;19;2304;-44
2022/01/23 00:22:49;;;;;;;;;;;;;;;;;;7392570;19;2312;-43
2022/01/23 00:30:49;;;;;;;;;;;;;;;;;;7392392;19;2320;-48
2022/01/23 00:33:17;;;;;;;;;;;;;;;;;;7392284;19;2179;-50
2022/01/23 00:35:45;;;;;;;;;;;;;;;;;;7392489;19;2424;-44
2022/01/23 00:38:13;;;;;;;;;;;;;;;;;;7392417;19;2650;-45
2022/01/23 00:40:42;;;;;;;;;;;;;;;;;;7392151;19;2031;-44
2022/01/23 00:43:25;;;;;;;;;;;;;;;;;;7391699;19;2391;-45
2022/01/23 00:46:07;;;;;;;;;;;;;;;;;;7391706;19;2627;-51
2022/01/23 00:48:49;;;;;;;;;;;;;;;;;;7390312;19;1469;-44
2022/01/23 00:51:17;;;;;;;;;;;;;;;;;;7389580;19;2166;-43
2022/01/23 00:53:44;;;;;;;;;;;;;;;;;;7391622;19;2237;-48
2022/01/23 00:56:11;;;;;;;;;;;;;;;;;;7390380;19;2291;-44
2022/01/23 00:58:38;;;;;;;;;;;;;;;;;;7391590;19;2277;-43
2022/01/23 01:01:05;;;;;;;;;;;;;;;;;;7391533;19;2189;-53
2022/01/23 01:03:33;;;;;;;;;;;;;;;;;;7389969;19;2026;-45
2022/01/23 01:06:00;;;;;;;;;;;;;;;;;;7392229;19;2001;-43
2022/01/23 01:08:27;;;;;;;;;;;;;;;;;;7389700;19;2218;-45
2022/01/23 01:13:24;;;;;;;;;;;;;;;;;;7389362;19;2367;-48
2022/01/23 01:16:02;;;;;;;;;;;;;;;;;;7388889;19;2314;-43
2022/01/23 01:32:50;;;;;;;;;;;;;;;;;;7388614;19;1989;-45
2022/01/23 01:37:46;;;;;;;;;;;;;;;;;;7388429;19;2166;-44
2022/01/23 01:40:13;;;;;;;;;;;;;;;;;;7388956;19;2360;-50
2022/01/23 01:42:41;;;;;;;;;;;;;;;;;;7388746;19;2298;-44
2022/01/23 01:45:08;;;;;;;;;;;;;;;;;;7388357;19;2195;-43
2022/01/23 01:47:52;;;;;;;;;;;;;;;;;;7388345;19;2324;-45
2022/01/23 01:50:20;;;;;;;;;;;;;;;;;;7387641;19;2227;-45
2022/01/23 01:52:47;;;;;;;;;;;;;;;;;;7387956;19;2168;-47
2022/01/23 01:55:22;;;;;;;;;;;;;;;;;;7388163;19;2139;-44
2022/01/23 01:58:01;;;;;;;;;;;;;;;;;;7388236;19;1958;-45
2022/01/23 02:00:54;;;;;;;;;;;;;;;;;;7390399;19;2062;-45
2022/01/23 02:08:46;;;;;;;;;;;;;;;;;;7388332;19;2040;-47
2022/01/23 02:11:20;;;;;;;;;;;;;;;;;;7390167;19;2174;-45
2022/01/23 02:13:57;;;;;;;;;;;;;;;;;;7387613;19;2123;-45
2022/01/23 02:52:48;;;;;;;;;;;;;;;;;;7394785;19;1968;-45
2022/01/23 02:55:21;;;;;;;;;;;;;;;;;;7395543;19;1494;-45
2022/01/23 02:57:54;;;;;;;;;;;;;;;;;;7394335;19;1769;-45
2022/01/23 03:00:34;;;;;;;;;;;;;;;;;;7395541;19;2264;-44
2022/01/23 03:03:11;;;;;;;;;;;;;;;;;;7393696;19;1421;-43
2022/01/23 03:09:49;;;;;;;;;;;;;;;;;;7391373;19;2343;-45
2022/01/23 03:25:49;;;;;;;;;;;;;;;;;;7394553;19;2303;-47
2022/01/23 03:28:33;;;;;;;;;;;;;;;;;;7393242;19;2332;-43
2022/01/23 03:33:32;;;;;;;;;;;;;;;;;;7393038;19;2374;-45
2022/01/23 03:36:00;;;;;;;;;;;;;;;;;;7393089;19;2117;-46
2022/01/23 03:38:28;;;;;;;;;;;;;;;;;;7394623;19;1967;-44
2022/01/23 03:40:55;;;;;;;;;;;;;;;;;;7394627;19;2419;-46
2022/01/23 03:43:30;;;;;;;;;;;;;;;;;;7393981;19;2302;-45
2022/01/23 03:46:20;;;;;;;;;;;;;;;;;;7392216;19;2280;-44
2022/01/23 03:51:38;;;;;;;;;;;;;;;;;;7393913;19;2257;-45
2022/01/23 03:54:06;;;;;;;;;;;;;;;;;;7393627;19;2359;-45
2022/01/23 03:56:33;;;;;;;;;;;;;;;;;;7392446;19;2299;-46
2022/01/23 03:59:01;;;;;;;;;;;;;;;;;;7393151;19;2377;-50
2022/01/23 04:01:28;;;;;;;;;;;;;;;;;;7393250;19;2403;-47
2022/01/23 04:04:01;;;;;;;;;;;;;;;;;;7389506;19;2362;-48
2022/01/23 04:06:29;;;;;;;;;;;;;;;;;;7391276;19;2212;-45
2022/01/23 04:08:57;;;;;;;;;;;;;;;;;;7389941;19;2291;-44
2022/01/23 04:11:24;;;;;;;;;;;;;;;;;;7393509;19;2043;-46
2022/01/23 04:14:00;;;;;;;;;;;;;;;;;;7391615;19;2046;-43
2022/01/23 04:17:06;;;;;;;;;;;;;;;;;;7393294;19;2223;-49
2022/01/23 04:19:59;;;;;;;;;;;;;;;;;;7392995;19;2511;-46
2022/01/23 04:33:57;;;;;;;;;;;;;;;;;;7389359;19;2229;-44
2022/01/23 05:01:31;;;;;;;;;;;;;;;;;;7390172;19;2349;-49
2022/01/23 05:04:18;;;;;;;;;;;;;;;;;;7389931;19;2295;-43
2022/01/23 05:07:09;;;;;;;;;;;;;;;;;;7390773;19;2183;-44
2022/01/23 05:10:00;;;;;;;;;;;;;;;;;;7389368;19;2257;-46
2022/01/23 05:12:51;;;;;;;;;;;;;;;;;;7390464;19;2287;-46
2022/01/23 05:15:18;;;;;;;;;;;;;;;;;;7389675;19;1798;-45
2022/01/23 05:17:47;;;;;;;;;;;;;;;;;;7391446;19;2304;-46
2022/01/23 05:20:18;;;;;;;;;;;;;;;;;;7388589;19;1824;-43
2022/01/23 05:22:49;;;;;;;;;;;;;;;;;;7390649;19;2345;-44
2022/01/23 05:25:22;;;;;;;;;;;;;;;;;;7389122;19;2306;-50
2022/01/23 05:27:54;;;;;;;;;;;;;;;;;;7390099;19;2308;-44
2022/01/23 05:30:23;;;;;;;;;;;;;;;;;;7390195;19;2219;-47
2022/01/23 05:32:51;;;;;;;;;;;;;;;;;;7391119;19;2123;-49
2022/01/23 05:35:21;;;;;;;;;;;;;;;;;;7389064;19;2155;-43
2022/01/23 05:37:50;;;;;;;;;;;;;;;;;;7388560;19;2027;-47
2022/01/23 05:40:21;;;;;;;;;;;;;;;;;;7390898;19;2308;-46
2022/01/23 05:42:53;;;;;;;;;;;;;;;;;;7390811;19;2316;-43
2022/01/23 05:45:20;;;;;;;;;;;;;;;;;;7388745;19;2192;-51
2022/01/23 05:48:05;;;;;;;;;;;;;;;;;;7391080;19;2373;-51
2022/01/23 05:50:50;;;;;;;;;;;;;;;;;;7387308;19;2339;-45
2022/01/23 05:53:35;;;;;;;;;;;;;;;;;;7389818;19;2358;-49
2022/01/23 05:56:19;;;;;;;;;;;;;;;;;;7389681;19;2091;-50
2022/01/23 05:58:49;;;;;;;;;;;;;;;;;;7389604;19;1999;-49
2022/01/23 06:01:18;;;;;;;;;;;;;;;;;;7388225;19;2320;-45
2022/01/23 06:03:47;;;;;;;;;;;;;;;;;;7386302;19;2296;-46
2022/01/23 06:06:18;;;;;;;;;;;;;;;;;;7389378;19;1877;-51
2022/01/23 06:08:46;;;;;;;;;;;;;;;;;;7387385;19;2280;-49
2022/01/23 06:11:14;;;;;;;;;;;;;;;;;;7389664;19;2221;-43
2022/01/23 06:13:41;;;;;;;;;;;;;;;;;;7387465;19;2136;-48
2022/01/23 06:16:12;;;;;;;;;;;;;;;;;;7387974;19;1961;-43
2022/01/23 06:18:47;;;;;;;;;;;;;;;;;;7387322;19;2266;-49
2022/01/23 06:21:33;;;;;;;;;;;;;;;;;;7388897;19;2193;-43
2022/01/23 06:24:25;;;;;;;;;;;;;;;;;;7388955;19;2195;-44
2022/01/23 06:27:28;;;;;;;;;;;;;;;;;;7384985;19;2461;-43
2022/01/23 06:29:55;;;;;;;;;;;;;;;;;;7387830;19;2095;-45
2022/01/23 06:32:24;;;;;;;;;;;;;;;;;;7387429;19;2212;-45
2022/01/23 06:34:51;;;;;;;;;;;;;;;;;;7388785;19;2004;-43
2022/01/23 06:37:18;;;;;;;;;;;;;;;;;;7387051;19;2147;-44
2022/01/23 06:39:46;;;;;;;;;;;;;;;;;;7388866;19;2231;-47
2022/01/23 06:42:20;;;;;;;;;;;;;;;;;;7386711;19;2266;-45
2022/01/23 06:45:08;;;;;;;;;;;;;;;;;;7388014;19;2073;-42
2022/01/23 06:47:37;;;;;;;;;;;;;;;;;;7392294;19;2287;-48
2022/01/23 06:50:05;;;;;;;;;;;;;;;;;;7386887;19;2244;-47
2022/01/23 06:52:32;;;;;;;;;;;;;;;;;;7388519;19;2088;-46
2022/01/23 06:55:00;;;;;;;;;;;;;;;;;;7386487;19;2162;-42
2022/01/23 06:57:28;;;;;;;;;;;;;;;;;;7386842;19;2258;-43
2022/01/23 06:59:56;;;;;;;;;;;;;;;;;;7386777;19;2157;-46
2022/01/23 07:02:46;;;;;;;;;;;;;;;;;;7384931;19;2312;-47
2022/01/23 07:05:19;;;;;;;;;;;;;;;;;;7386751;19;2325;-42
2022/01/23 07:08:07;;;;;;;;;;;;;;;;;;7394343;19;2221;-44
2022/01/23 07:10:51;;;;;;;;;;;;;;;;;;7395056;19;2343;-43
2022/01/23 07:13:41;;;;;;;;;;;;;;;;;;7393761;19;2019;-51
2022/01/23 07:16:15;;;;;;;;;;;;;;;;;;7394570;19;1932;-43
2022/01/23 07:19:00;;;;;;;;;;;;;;;;;;7393837;19;1511;-45
2022/01/23 07:21:33;;;;;;;;;;;;;;;;;;7392411;19;2267;-44
2022/01/23 07:24:01;;;;;;;;;;;;;;;;;;7393387;19;2245;-44
2022/01/23 07:26:28;;;;;;;;;;;;;;;;;;7393835;19;2259;-45
2022/01/23 07:29:01;;;;;;;;;;;;;;;;;;7390830;19;1958;-47
2022/01/23 07:34:06;;;;;;;;;;;;;;;;;;7393308;19;1925;-48
2022/01/23 07:36:36;;;;;;;;;;;;;;;;;;7393576;19;2387;-43
2022/01/23 07:39:17;;;;;;;;;;;;;;;;;;7391910;19;2219;-43
2022/01/23 07:41:48;;;;;;;;;;;;;;;;;;7392339;19;2109;-43
2022/01/23 07:44:33;;;;;;;;;;;;;;;;;;7395050;19;2095;-42
2022/01/23 07:47:22;;;;;;;;;;;;;;;;;;7394427;19;2214;-48
2022/01/23 07:50:08;;;;;;;;;;;;;;;;;;7394023;19;2091;-46
2022/01/23 07:52:53;;;;;;;;;;;;;;;;;;7394185;19;2320;-50
2022/01/23 07:55:39;;;;;;;;;;;;;;;;;;7393933;19;1917;-43
2022/01/23 07:58:14;;;;;;;;;;;;;;;;;;7393860;19;2265;-45
2022/01/23 08:01:05;;;;;;;;;;;;;;;;;;7394015;19;2193;-45
2022/01/23 08:03:44;;;;;;;;;;;;;;;;;;7389928;19;2425;-52
2022/01/23 08:06:15;;;;;;;;;;;;;;;;;;7391944;19;2234;-43
2022/01/23 08:08:43;;;;;;;;;;;;;;;;;;7392460;19;2342;-45
2022/01/23 08:11:30;;;;;;;;;;;;;;;;;;7395421;19;2401;-43
2022/01/23 08:13:57;;;;;;;;;;;;;;;;;;7393658;19;2343;-52
2022/01/23 08:16:24;;;;;;;;;;;;;;;;;;7392566;19;1847;-46
2022/01/23 08:18:52;;;;;;;;;;;;;;;;;;7393072;19;1724;-49
2022/01/23 08:21:19;;;;;;;;;;;;;;;;;;7391987;19;2263;-52
2022/01/23 08:23:46;;;;;;;;;;;;;;;;;;7392989;19;2341;-45
2022/01/23 08:26:14;;;;;;;;;;;;;;;;;;7392725;19;2291;-48
2022/01/23 08:28:41;;;;;;;;;;;;;;;;;;7391913;19;2025;-47
2022/01/23 08:31:08;;;;;;;;;;;;;;;;;;7392933;19;2296;-53
2022/01/23 08:33:35;;;;;;;;;;;;;;;;;;7392342;19;2230;-50
2022/01/23 08:36:02;;;;;;;;;;;;;;;;;;7392174;19;1934;-45
2022/01/23 08:38:30;;;;;;;;;;;;;;;;;;7391726;19;2320;-47
2022/01/23 08:43:39;;;;;;;;;;;;;;;;;;7392163;19;2040;-44
2022/01/23 08:46:06;;;;;;;;;;;;;;;;;;7391281;19;2278;-47
2022/01/23 08:48:33;;;;;;;;;;;;;;;;;;7391562;19;2443;-45
2022/01/23 08:51:01;;;;;;;;;;;;;;;;;;7391893;19;2210;-43
2022/01/23 08:53:28;;;;;;;;;;;;;;;;;;7392441;19;2294;-50
2022/01/23 08:55:56;;;;;;;;;;;;;;;;;;7391799;19;1655;-48
2022/01/23 08:58:24;;;;;;;;;;;;;;;;;;7391294;19;2240;-52
2022/01/23 09:00:53;;;;;;;;;;;;;;;;;;7391385;19;2307;-46
2022/01/23 09:03:21;;;;;;;;;;;;;;;;;;7390283;19;1984;-48
2022/01/23 09:05:48;;;;;;;;;;;;;;;;;;7391699;19;2163;-46
2022/01/23 09:08:16;;;;;;;;;;;;;;;;;;7392929;19;2393;-48
2022/01/23 09:10:53;;;;;;;;;;;;;;;;;;7392809;19;2373;-50
2022/01/23 09:16:07;;;;;;;;;;;;;;;;;;7390773;19;1929;-50
2022/01/23 09:18:34;;;;;;;;;;;;;;;;;;7390856;19;2270;-46
2022/01/23 09:21:02;;;;;;;;;;;;;;;;;;7391126;19;2176;-46
2022/01/23 09:23:30;;;;;;;;;;;;;;;;;;7390662;19;2344;-49
2022/01/23 10:06:59;;;;;;;;;;;;;;;;;;7383076;19;1179;-46
2022/01/23 16:32:14;;;;;;;;;;;;;;;;;;7389497;19;2283;-43
2022/01/23 16:34:43;;;;;;;;;;;;;;;;;;7393299;19;2277;-48
2022/01/23 16:37:12;;;;;;;;;;;;;;;;;;7393083;19;2208;-43
2022/01/23 16:39:43;;;;;;;;;;;;;;;;;;7393068;19;2332;-43
2022/01/23 16:42:10;;;;;;;;;;;;;;;;;;7392386;19;2276;-47
2022/01/23 16:44:44;;;;;;;;;;;;;;;;;;7392215;19;2228;-52
2022/01/23 16:47:13;;;;;;;;;;;;;;;;;;7392263;19;2251;-43
2022/01/23 16:49:43;;;;;;;;;;;;;;;;;;7390432;19;2214;-41
2022/01/23 16:52:12;;;;;;;;;;;;;;;;;;7389141;19;2247;-43
2022/01/23 16:54:40;;;;;;;;;;;;;;;;;;7392197;19;2291;-41
2022/01/23 16:57:21;;;;;;;;;;;;;;;;;;7392691;19;2283;-41
2022/01/23 16:59:48;;;;;;;;;;;;;;;;;;7392560;19;2351;-42
2022/01/23 17:02:15;;;;;;;;;;;;;;;;;;7391976;19;2206;-46
2022/01/23 17:04:43;;;;;;;;;;;;;;;;;;7392094;19;2174;-42
2022/01/23 17:07:10;;;;;;;;;;;;;;;;;;7391893;19;2285;-45
2022/01/23 17:09:38;;;;;;;;;;;;;;;;;;7390773;19;2402;-41
2022/01/23 17:12:06;;;;;;;;;;;;;;;;;;7395222;19;2205;-43
2022/01/23 17:14:35;;;;;;;;;;;;;;;;;;7390872;19;2031;-41
2022/01/23 17:17:02;;;;;;;;;;;;;;;;;;7391601;19;2306;-49
2022/01/23 17:19:31;;;;;;;;;;;;;;;;;;7391633;19;2212;-42
2022/01/23 17:22:04;;;;;;;;;;;;;;;;;;7390228;19;2192;-43
2022/01/23 17:24:36;;;;;;;;;;;;;;;;;;7391921;19;1908;-42
2022/01/23 17:27:06;;;;;;;;;;;;;;;;;;7391344;19;2406;-45
2022/01/23 17:29:43;;;;;;;;;;;;;;;;;;7390104;19;2199;-47
2022/01/23 17:32:14;;;;;;;;;;;;;;;;;;7392034;19;2151;-45
2022/01/23 17:35:02;;;;;;;;;;;;;;;;;;7390539;19;2237;-42
2022/01/23 17:37:30;;;;;;;;;;;;;;;;;;7390944;19;2146;-44
2022/01/23 17:39:57;;;;;;;;;;;;;;;;;;7390570;19;1895;-43
2022/01/23 17:42:25;;;;;;;;;;;;;;;;;;7390913;19;2500;-42
2022/01/23 17:44:54;;;;;;;;;;;;;;;;;;7390547;19;2135;-39
2022/01/23 17:50:14;;;;;;;;;;;;;;;;;;7387291;19;2281;-40
2022/01/23 17:52:43;;;;;;;;;;;;;;;;;;7390481;19;2307;-41
2022/01/23 17:55:11;;;;;;;;;;;;;;;;;;7389733;19;2019;-45
2022/01/23 17:57:39;;;;;;;;;;;;;;;;;;7390738;19;2327;-44
2022/01/23 18:00:09;;;;;;;;;;;;;;;;;;7388310;19;2239;-42
2022/01/23 18:02:40;;;;;;;;;;;;;;;;;;7390373;19;1982;-42
2022/01/23 18:05:10;;;;;;;;;;;;;;;;;;7390081;19;2256;-43
2022/01/23 18:07:38;;;;;;;;;;;;;;;;;;7390351;19;2389;-46
2022/01/23 18:10:08;;;;;;;;;;;;;;;;;;7387913;19;2522;-40
2022/01/23 18:12:46;;;;;;;;;;;;;;;;;;7388748;19;2184;-44
2022/01/23 18:15:14;;;;;;;;;;;;;;;;;;7389437;19;2162;-42
2022/01/23 18:17:42;;;;;;;;;;;;;;;;;;7388941;19;2246;-43
2022/01/23 18:20:11;;;;;;;;;;;;;;;;;;7389290;19;1942;-45
2022/01/23 18:22:38;;;;;;;;;;;;;;;;;;7388846;19;2004;-48
2022/01/23 18:25:05;;;;;;;;;;;;;;;;;;7389439;19;2239;-41
2022/01/23 18:27:33;;;;;;;;;;;;;;;;;;7388655;19;2312;-46
2022/01/23 18:30:01;;;;;;;;;;;;;;;;;;7388040;19;2109;-41
2022/01/23 18:32:29;;;;;;;;;;;;;;;;;;7389098;19;2360;-43
2022/01/23 18:34:56;;;;;;;;;;;;;;;;;;7388959;19;2439;-43
2022/01/23 18:37:23;;;;;;;;;;;;;;;;;;7389270;19;2253;-42
2022/01/23 18:39:52;;;;;;;;;;;;;;;;;;7389301;19;1971;-47
2022/01/23 18:42:23;;;;;;;;;;;;;;;;;;7388016;19;2163;-48
2022/01/23 18:44:52;;;;;;;;;;;;;;;;;;7389838;19;2350;-43
2022/01/23 18:47:22;;;;;;;;;;;;;;;;;;7389192;19;1730;-41
2022/01/23 18:49:49;;;;;;;;;;;;;;;;;;7387692;19;2033;-44
2022/01/23 18:52:16;;;;;;;;;;;;;;;;;;7386524;19;1739;-48
2022/01/23 18:54:56;;;;;;;;;;;;;;;;;;7388505;19;2426;-48
2022/01/23 18:57:43;;;;;;;;;;;;;;;;;;7387859;19;2087;-50
2022/01/23 19:00:13;;;;;;;;;;;;;;;;;;7388343;19;2170;-44
2022/01/23 19:02:50;;;;;;;;;;;;;;;;;;7392921;19;2407;-48
2022/01/23 19:05:25;;;;;;;;;;;;;;;;;;7393283;19;2223;-45
2022/01/23 19:08:04;;;;;;;;;;;;;;;;;;7395928;19;2291;-49
2022/01/23 19:10:35;;;;;;;;;;;;;;;;;;7393509;19;2346;-44
2022/01/23 19:13:04;;;;;;;;;;;;;;;;;;7395522;19;1582;-44
2022/01/23 19:15:32;;;;;;;;;;;;;;;;;;7395190;19;2382;-41
2022/01/23 19:18:00;;;;;;;;;;;;;;;;;;7394221;19;2345;-45
2022/01/23 19:20:27;;;;;;;;;;;;;;;;;;7395075;19;2069;-51
2022/01/23 19:22:58;;;;;;;;;;;;;;;;;;7395643;19;1997;-45
2022/01/23 19:25:26;;;;;;;;;;;;;;;;;;7394685;19;2341;-49
2022/01/23 19:27:58;;;;;;;;;;;;;;;;;;7396089;19;2559;-44
2022/01/23 19:30:28;;;;;;;;;;;;;;;;;;7392707;19;2002;-46
2022/01/23 19:32:57;;;;;;;;;;;;;;;;;;7397691;19;2306;-49
2022/01/23 19:35:25;;;;;;;;;;;;;;;;;;7394883;19;2323;-50
2022/01/23 19:37:54;;;;;;;;;;;;;;;;;;7394862;19;2025;-42
2022/01/23 19:40:31;;;;;;;;;;;;;;;;;;7394451;19;2053;-49
2022/01/23 19:45:38;;;;;;;;;;;;;;;;;;7393796;19;2189;-44
2022/01/23 19:48:23;;;;;;;;;;;;;;;;;;7392554;19;2078;-46
2022/01/23 19:50:51;;;;;;;;;;;;;;;;;;7389690;19;2086;-43
2022/01/23 19:53:32;;;;;;;;;;;;;;;;;;7393857;19;2429;-43
2022/01/23 19:56:02;;;;;;;;;;;;;;;;;;7394037;19;2248;-42
2022/01/23 19:58:35;;;;;;;;;;;;;;;;;;7394193;19;1984;-45
2022/01/23 20:01:05;;;;;;;;;;;;;;;;;;7393776;19;2284;-42
2022/01/23 20:03:32;;;;;;;;;;;;;;;;;;7393741;19;2291;-44
2022/01/23 20:06:02;;;;;;;;;;;;;;;;;;7392291;19;2277;-40
2022/01/23 20:08:30;;;;;;;;;;;;;;;;;;7393984;19;2143;-44
2022/01/23 20:11:17;;;;;;;;;;;;;;;;;;7393494;19;2338;-40
2022/01/23 20:13:46;;;;;;;;;;;;;;;;;;7391658;19;2087;-39
2022/01/23 20:16:19;;;;;;;;;;;;;;;;;;7393013;19;2109;-40
2022/01/23 22:27:15;;;;;;;;;;;;;;;;;;7385436;19;2027;-45
2022/01/23 22:29:43;;;;;;;;;;;;;;;;;;7388701;19;2253;-42
2022/01/23 22:32:11;;;;;;;;;;;;;;;;;;7388697;19;2305;-43
2022/01/23 22:34:38;;;;;;;;;;;;;;;;;;7388798;19;2123;-42
2022/01/23 22:37:06;;;;;;;;;;;;;;;;;;7395298;19;2258;-44
2022/01/23 22:39:33;;;;;;;;;;;;;;;;;;7396304;19;2489;-44
2022/01/23 22:42:00;;;;;;;;;;;;;;;;;;7397330;19;2288;-43
2022/01/23 22:44:29;;;;;;;;;;;;;;;;;;7397370;19;2200;-44
2022/01/23 22:46:56;;;;;;;;;;;;;;;;;;7396588;19;1605;-41
2022/01/23 22:49:24;;;;;;;;;;;;;;;;;;7395942;19;2302;-44
2022/01/23 22:51:53;;;;;;;;;;;;;;;;;;7393104;19;2073;-42
2022/01/23 22:54:20;;;;;;;;;;;;;;;;;;7395346;19;1639;-42
2022/01/23 22:56:48;;;;;;;;;;;;;;;;;;7399893;19;2374;-47
2022/01/23 22:59:16;;;;;;;;;;;;;;;;;;7395799;19;2304;-42
2022/01/23 23:01:44;;;;;;;;;;;;;;;;;;7396136;19;2331;-47
2022/01/23 23:04:11;;;;;;;;;;;;;;;;;;7395899;19;2192;-45
2022/01/23 23:06:39;;;;;;;;;;;;;;;;;;7395173;19;2187;-44
2022/01/23 23:09:07;;;;;;;;;;;;;;;;;;7394745;19;2168;-41
2022/01/23 23:11:34;;;;;;;;;;;;;;;;;;7395336;19;2237;-43
